createdAt,value
2023-05-09T00:00:46.677Z,10.75
2023-05-09T00:03:20.822Z,10.02
2023-05-09T00:05:48.470Z,9.18
2023-05-09T00:08:22.522Z,8.23
2023-05-09T00:10:49.545Z,9.48
2023-05-09T00:13:23.555Z,8.95
2023-05-09T00:16:07.538Z,7.53
2023-05-09T00:18:36.809Z,7.97
2023-05-09T00:21:14.764Z,8.48
2023-05-09T00:23:48.505Z,7.78
2023-05-09T00:26:16.701Z,6.45
2023-05-09T00:28:51.469Z,7.50
2023-05-09T00:31:18.473Z,7.53
2023-05-09T00:33:52.506Z,8.00
2023-05-09T00:36:27.737Z,8.10
2023-05-09T00:39:01.483Z,8.80
2023-05-09T00:41:28.598Z,8.27
2023-05-09T00:44:03.520Z,8.45
2023-05-09T00:46:38.643Z,8.45
2023-05-09T00:49:14.477Z,9.35
2023-05-09T00:51:43.104Z,9.48
2023-05-09T00:54:16.525Z,9.30
2023-05-09T00:56:50.488Z,9.63
2023-05-09T00:59:25.524Z,9.68
2023-05-09T01:01:54.792Z,10.18
2023-05-09T01:04:22.032Z,10.30
2023-05-09T01:07:13.467Z,9.88
2023-05-09T01:10:08.549Z,11.00
2023-05-09T01:12:55.619Z,11.02
2023-05-09T01:15:57.654Z,10.77
2023-05-09T01:18:51.537Z,9.98
2023-05-09T01:21:36.958Z,19.83
2023-05-09T01:24:46.474Z,13.68
2023-05-09T01:28:00.506Z,23.90
2023-05-09T01:30:29.834Z,12.20
2023-05-09T01:33:09.620Z,12.77
2023-05-09T01:35:49.649Z,11.07
2023-05-09T01:38:23.921Z,11.15
2023-05-09T01:41:08.520Z,12.25
2023-05-09T01:43:45.607Z,14.07
2023-05-09T01:46:24.710Z,14.10
2023-05-09T01:48:53.654Z,14.98
2023-05-09T01:51:29.674Z,14.10
2023-05-09T01:54:06.508Z,14.90
2023-05-09T01:56:42.568Z,16.05
2023-05-09T01:59:22.523Z,16.13
2023-05-09T02:01:59.518Z,15.88
2023-05-09T02:04:35.620Z,15.65
2023-05-09T02:07:11.521Z,14.70
2023-05-09T02:09:39.545Z,14.98
2023-05-09T02:12:14.574Z,13.32
2023-05-09T02:15:01.526Z,12.77
2023-05-09T02:17:37.585Z,13.45
2023-05-09T02:20:12.607Z,13.02
2023-05-09T02:22:50.560Z,13.95
2023-05-09T02:25:25.493Z,12.65
2023-05-09T02:27:56.240Z,11.90
2023-05-09T02:30:34.838Z,12.07
2023-05-09T02:33:13.493Z,11.23
2023-05-09T02:35:52.694Z,11.13
2023-05-09T02:38:21.631Z,11.85
2023-05-09T02:40:57.779Z,12.82
2023-05-09T02:43:25.877Z,12.38
2023-05-09T02:45:59.574Z,12.13
2023-05-09T02:48:26.714Z,13.32
2023-05-09T02:51:00.672Z,12.75
2023-05-09T02:53:36.793Z,13.48
2023-05-09T02:56:10.564Z,12.63
2023-05-09T02:58:45.573Z,13.93
2023-05-09T03:01:19.603Z,12.50
2023-05-09T03:03:54.716Z,13.43
2023-05-09T03:06:21.836Z,12.45
2023-05-09T03:08:56.558Z,13.40
2023-05-09T03:11:32.792Z,13.05
2023-05-09T03:14:06.544Z,12.93
2023-05-09T03:16:49.561Z,13.82
2023-05-09T03:19:16.641Z,13.00
2023-05-09T03:21:53.843Z,12.00
2023-05-09T03:24:28.550Z,12.75
2023-05-09T03:27:03.577Z,12.23
2023-05-09T03:29:37.636Z,13.25
2023-05-09T03:32:05.315Z,11.07
2023-05-09T03:34:39.848Z,10.40
2023-05-09T03:37:15.826Z,11.52
2023-05-09T03:39:50.587Z,10.88
2023-05-09T03:42:17.726Z,10.27
2023-05-09T03:44:53.509Z,9.98
2023-05-09T03:47:20.737Z,9.07
2023-05-09T03:49:57.038Z,8.82
2023-05-09T03:52:30.544Z,9.50
2023-05-09T03:55:06.518Z,11.00
2023-05-09T03:57:41.764Z,11.05
2023-05-09T04:00:18.799Z,9.73
2023-05-09T04:02:47.265Z,9.93
2023-05-09T04:05:21.612Z,10.75
2023-05-09T04:07:55.952Z,10.18
2023-05-09T04:10:23.126Z,10.48
2023-05-09T04:12:57.621Z,9.90
2023-05-09T04:15:31.658Z,10.13
2023-05-09T04:18:13.572Z,9.95
2023-05-09T04:20:47.590Z,9.63
2023-05-09T04:23:14.693Z,9.73
2023-05-09T04:25:48.647Z,9.25
2023-05-09T04:28:22.829Z,9.30
2023-05-09T04:30:57.597Z,9.63
2023-05-09T04:33:32.582Z,8.70
2023-05-09T04:36:05.558Z,9.85
2023-05-09T04:38:39.597Z,8.88
2023-05-09T04:41:13.785Z,8.18
2023-05-09T04:43:48.558Z,8.77
2023-05-09T04:46:15.572Z,8.60
2023-05-09T04:48:49.569Z,9.55
2023-05-09T04:51:16.874Z,8.52
2023-05-09T04:53:50.533Z,7.90
2023-05-09T04:56:17.612Z,8.45
2023-05-09T04:58:54.120Z,7.57
2023-05-09T05:01:21.319Z,8.32
2023-05-09T05:03:56.557Z,7.18
2023-05-09T05:06:23.592Z,8.60
2023-05-09T05:08:58.554Z,8.00
2023-05-09T05:11:25.643Z,7.65
2023-05-09T05:13:59.559Z,7.90
2023-05-09T05:16:32.998Z,7.22
2023-05-09T05:19:06.610Z,7.90
2023-05-09T05:21:35.221Z,7.07
2023-05-09T05:24:08.597Z,6.88
2023-05-09T05:26:35.919Z,7.07
2023-05-09T05:29:09.798Z,7.35
2023-05-09T05:32:02.548Z,6.95
2023-05-09T05:34:43.665Z,6.97
2023-05-09T05:37:10.817Z,7.80
2023-05-09T05:39:46.796Z,7.60
2023-05-09T05:42:16.691Z,7.07
2023-05-09T05:44:50.600Z,7.43
2023-05-09T05:47:17.677Z,7.10
2023-05-09T05:49:51.585Z,6.40
2023-05-09T05:52:24.594Z,7.03
2023-05-09T05:54:51.844Z,7.10
2023-05-09T05:57:27.850Z,7.88
2023-05-09T05:59:54.957Z,7.07
2023-05-09T06:02:29.699Z,8.00
2023-05-09T06:04:57.979Z,7.47
2023-05-09T06:07:34.118Z,5.05
2023-05-09T06:10:07.574Z,4.32
2023-05-09T06:12:41.602Z,4.85
2023-05-09T06:15:17.281Z,4.65
2023-05-09T06:17:51.657Z,6.22
2023-05-09T06:20:26.606Z,5.22
2023-05-09T06:22:53.601Z,4.70
2023-05-09T06:25:27.633Z,5.30
2023-05-09T06:27:57.021Z,4.65
2023-05-09T06:30:30.609Z,4.28
2023-05-09T06:32:58.460Z,4.50
2023-05-09T06:35:25.820Z,4.80
2023-05-09T06:37:59.633Z,5.13
2023-05-09T06:40:26.702Z,4.43
2023-05-09T06:43:01.609Z,3.95
2023-05-09T06:45:28.630Z,4.43
2023-05-09T06:47:55.875Z,4.60
2023-05-09T06:50:31.453Z,4.93
2023-05-09T06:53:06.552Z,4.20
2023-05-09T06:55:39.711Z,4.35
2023-05-09T06:58:08.315Z,4.38
2023-05-09T07:00:43.680Z,4.20
2023-05-09T07:03:11.798Z,4.60
2023-05-09T07:05:45.867Z,5.10
2023-05-09T07:08:12.857Z,4.40
2023-05-09T07:10:46.612Z,5.80
2023-05-09T07:13:13.672Z,5.10
2023-05-09T07:15:47.667Z,5.10
2023-05-09T07:18:17.242Z,5.60
2023-05-09T07:20:44.366Z,5.57
2023-05-09T07:23:17.611Z,5.72
2023-05-09T07:25:46.517Z,6.13
2023-05-09T07:28:19.648Z,5.30
2023-05-09T07:30:48.365Z,5.40
2023-05-09T07:33:21.892Z,5.70
2023-05-09T07:35:49.196Z,5.05
2023-05-09T07:38:22.588Z,5.10
2023-05-09T07:40:49.593Z,5.28
2023-05-09T07:43:25.050Z,4.93
2023-05-09T07:45:52.181Z,5.43
2023-05-09T07:48:25.712Z,4.78
2023-05-09T07:50:59.581Z,5.22
2023-05-09T07:53:33.613Z,4.60
2023-05-09T07:56:08.075Z,4.53
2023-05-09T07:58:41.597Z,4.22
2023-05-09T08:01:14.652Z,4.53
2023-05-09T08:03:48.936Z,4.90
2023-05-09T08:06:22.629Z,5.20
2023-05-09T08:08:50.179Z,4.97
2023-05-09T08:11:23.626Z,4.72
2023-05-09T08:13:50.781Z,4.68
2023-05-09T08:16:24.761Z,4.90
2023-05-09T08:18:51.803Z,4.53
2023-05-09T08:21:25.644Z,4.35
2023-05-09T08:23:53.206Z,4.25
2023-05-09T08:26:26.720Z,4.60
2023-05-09T08:28:54.440Z,4.53
2023-05-09T08:31:27.628Z,5.20
2023-05-09T08:33:54.777Z,4.53
2023-05-09T08:36:28.663Z,4.60
2023-05-09T08:38:55.681Z,4.32
2023-05-09T08:41:38.712Z,4.72
2023-05-09T08:44:12.627Z,4.63
2023-05-09T08:46:44.382Z,4.28
2023-05-09T08:49:18.695Z,3.90
2023-05-09T08:51:54.654Z,3.83
2023-05-09T08:54:23.858Z,3.83
2023-05-09T08:56:58.625Z,4.03
2023-05-09T08:59:28.286Z,4.20
2023-05-09T09:02:03.719Z,3.63
2023-05-09T09:04:37.723Z,3.58
2023-05-09T09:07:12.670Z,4.57
2023-05-09T09:09:52.615Z,4.40
2023-05-09T09:12:30.693Z,4.72
2023-05-09T09:15:11.720Z,4.85
2023-05-09T09:17:58.729Z,5.55
2023-05-09T09:20:30.562Z,5.05
2023-05-09T09:23:08.668Z,4.53
2023-05-09T09:25:35.696Z,4.15
2023-05-09T09:28:09.708Z,4.35
2023-05-09T09:30:45.216Z,4.35
2023-05-09T09:33:29.668Z,4.68
2023-05-09T09:35:57.731Z,4.43
2023-05-09T09:38:25.368Z,4.53
2023-05-09T09:40:58.702Z,5.38
2023-05-09T09:43:36.666Z,4.60
2023-05-09T09:46:07.041Z,4.32
2023-05-09T09:48:35.894Z,3.97
2023-05-09T09:51:18.724Z,4.25
2023-05-09T09:53:47.001Z,4.10
2023-05-09T09:56:20.708Z,4.35
2023-05-09T09:58:48.019Z,3.85
2023-05-09T10:01:23.758Z,3.65
2023-05-09T10:03:57.780Z,3.90
2023-05-09T10:06:34.438Z,4.05
2023-05-09T10:09:08.642Z,3.15
2023-05-09T10:11:35.683Z,2.90
2023-05-09T10:14:09.630Z,2.60
2023-05-09T10:16:44.790Z,3.20
2023-05-09T10:19:29.688Z,2.97
2023-05-09T10:22:14.733Z,2.55
2023-05-09T10:25:08.752Z,1.90
2023-05-09T10:27:38.227Z,1.90
2023-05-09T10:30:22.559Z,2.63
2023-05-09T10:33:07.922Z,2.38
2023-05-09T10:35:47.644Z,2.05
2023-05-09T10:38:14.929Z,1.80
2023-05-09T10:40:48.702Z,2.38
2023-05-09T10:43:23.905Z,2.40
2023-05-09T10:45:58.669Z,2.13
2023-05-09T10:48:26.580Z,2.40
2023-05-09T10:51:01.722Z,1.80
2023-05-09T10:53:51.059Z,1.90
2023-05-09T10:56:38.674Z,2.00
2023-05-09T10:59:12.904Z,1.90
2023-05-09T11:01:52.815Z,2.00
2023-05-09T11:04:28.975Z,2.20
2023-05-09T11:06:57.705Z,2.03
2023-05-09T11:09:45.655Z,1.90
2023-05-09T11:12:15.535Z,2.25
2023-05-09T11:15:02.677Z,2.15
2023-05-09T11:17:45.703Z,2.13
2023-05-09T11:20:19.741Z,2.15
2023-05-09T11:22:47.546Z,2.28
2023-05-09T11:25:23.665Z,2.20
2023-05-09T11:27:52.187Z,1.70
2023-05-09T11:30:28.708Z,2.20
2023-05-09T11:32:58.217Z,2.08
2023-05-09T11:35:34.781Z,2.55
2023-05-09T11:38:06.806Z,2.42
2023-05-09T11:40:41.706Z,2.50
2023-05-09T11:43:11.064Z,2.30
2023-05-09T11:45:45.724Z,2.10
2023-05-09T11:48:12.827Z,2.45
2023-05-09T11:50:48.705Z,2.30
2023-05-09T11:53:15.811Z,2.28
2023-05-09T11:55:49.705Z,2.40
2023-05-09T11:58:24.733Z,2.67
2023-05-09T12:00:58.700Z,3.25
2023-05-09T12:03:27.577Z,2.85
2023-05-09T12:06:04.174Z,2.78
2023-05-09T12:08:37.918Z,3.08
2023-05-09T12:11:16.701Z,3.08
2023-05-09T12:13:49.942Z,3.15
2023-05-09T12:16:29.760Z,2.92
2023-05-09T12:19:05.757Z,3.17
2023-05-09T12:21:40.035Z,2.67
2023-05-09T12:24:07.246Z,3.47
2023-05-09T12:26:43.277Z,3.10
2023-05-09T12:29:10.450Z,2.83
2023-05-09T12:31:37.658Z,2.97
2023-05-09T12:34:11.745Z,2.83
2023-05-09T12:36:39.286Z,2.58
2023-05-09T12:39:20.688Z,3.15
2023-05-09T12:42:00.518Z,2.67
2023-05-09T12:44:35.728Z,2.42
2023-05-09T12:47:06.747Z,2.58
2023-05-09T12:49:43.788Z,2.60
2023-05-09T12:52:26.751Z,2.40
2023-05-09T12:55:00.716Z,2.60
2023-05-09T12:57:31.283Z,2.78
2023-05-09T13:00:07.996Z,2.38
2023-05-09T13:02:42.197Z,2.40
2023-05-09T13:05:21.335Z,2.05
2023-05-09T13:07:58.741Z,2.60
2023-05-09T13:10:35.700Z,2.40
2023-05-09T13:13:12.997Z,2.58
2023-05-09T13:15:53.712Z,2.67
2023-05-09T13:18:35.819Z,2.05
2023-05-09T13:21:04.052Z,2.15
2023-05-09T13:23:37.755Z,2.53
2023-05-09T13:26:06.327Z,3.25
2023-05-09T13:28:39.745Z,2.35
2023-05-09T13:31:07.300Z,2.50
2023-05-09T13:33:41.960Z,2.67
2023-05-09T13:36:09.272Z,2.67
2023-05-09T13:38:47.767Z,2.58
2023-05-09T13:41:27.758Z,3.20
2023-05-09T13:44:01.747Z,2.72
2023-05-09T13:46:28.794Z,2.47
2023-05-09T13:49:03.761Z,2.40
2023-05-09T13:51:33.268Z,2.80
2023-05-09T13:54:00.339Z,3.00
2023-05-09T13:56:34.895Z,2.70
2023-05-09T13:59:08.727Z,2.72
2023-05-09T14:01:42.846Z,2.50
2023-05-09T14:04:10.159Z,3.00
2023-05-09T14:06:43.848Z,2.33
2023-05-09T14:09:20.253Z,1.98
2023-05-09T14:11:55.778Z,2.40
2023-05-09T14:14:25.285Z,2.08
2023-05-09T14:17:08.228Z,2.10
2023-05-09T14:19:35.341Z,2.25
2023-05-09T14:22:12.694Z,1.77
2023-05-09T14:24:44.252Z,1.73
2023-05-09T14:27:17.759Z,1.77
2023-05-09T14:29:51.763Z,1.63
2023-05-09T14:32:25.716Z,1.60
2023-05-09T14:34:58.853Z,1.75
2023-05-09T14:37:36.602Z,1.63
2023-05-09T14:40:12.935Z,1.67
2023-05-09T14:42:46.726Z,1.50
2023-05-09T14:45:21.845Z,1.50
2023-05-09T14:47:55.798Z,1.33
2023-05-09T14:50:29.777Z,1.50
2023-05-09T14:52:57.277Z,1.50
2023-05-09T14:55:27.838Z,1.67
2023-05-09T14:58:01.788Z,1.80
2023-05-09T15:00:30.357Z,1.33
2023-05-09T15:03:03.915Z,1.40
2023-05-09T15:05:31.186Z,1.60
2023-05-09T15:08:08.891Z,1.80
2023-05-09T15:10:42.813Z,1.70
2023-05-09T15:13:12.529Z,1.50
2023-05-09T15:15:49.759Z,1.80
2023-05-09T15:18:23.851Z,1.60
2023-05-09T15:20:58.762Z,1.50
2023-05-09T15:23:25.795Z,1.23
2023-05-09T15:26:00.796Z,1.52
2023-05-09T15:28:28.300Z,1.50
2023-05-09T15:31:03.010Z,1.70
2023-05-09T15:33:36.805Z,1.60
2023-05-09T15:36:10.750Z,1.52
2023-05-09T15:38:39.054Z,1.70
2023-05-09T15:41:12.776Z,1.60
2023-05-09T15:43:40.898Z,1.52
2023-05-09T15:46:14.768Z,1.67
2023-05-09T15:48:41.863Z,1.30
2023-05-09T15:51:16.752Z,1.50
2023-05-09T15:53:51.784Z,1.70
2023-05-09T15:56:19.184Z,1.60
2023-05-09T15:58:52.883Z,1.60
2023-05-09T16:01:19.946Z,1.42
2023-05-09T16:03:53.892Z,1.52
2023-05-09T16:06:27.887Z,1.52
2023-05-09T16:08:55.226Z,1.50
2023-05-09T16:11:30.164Z,1.52
2023-05-09T16:13:57.504Z,1.40
2023-05-09T16:16:31.845Z,1.25
2023-05-09T16:19:07.067Z,1.38
2023-05-09T16:21:40.921Z,1.27
2023-05-09T16:24:08.617Z,1.55
2023-05-09T16:26:43.858Z,1.30
2023-05-09T16:29:11.308Z,1.50
2023-05-09T16:31:44.947Z,1.20
2023-05-09T16:34:12.172Z,1.25
2023-05-09T16:36:45.812Z,1.30
2023-05-09T16:39:19.851Z,1.40
2023-05-09T16:41:47.153Z,1.60
2023-05-09T16:44:21.827Z,1.73
2023-05-09T16:46:50.065Z,1.70
2023-05-09T16:49:23.796Z,2.05
2023-05-09T16:51:50.961Z,2.15
2023-05-09T16:54:26.779Z,2.53
2023-05-09T16:56:54.209Z,2.58
2023-05-09T16:59:29.104Z,1.70
2023-05-09T17:01:58.818Z,1.80
2023-05-09T17:04:35.894Z,1.80
2023-05-09T17:07:12.909Z,1.60
2023-05-09T17:09:46.813Z,1.75
2023-05-09T17:12:18.206Z,1.73
2023-05-09T17:14:55.830Z,1.80
2023-05-09T17:17:29.950Z,1.98
2023-05-09T17:20:05.393Z,1.90
2023-05-09T17:22:35.882Z,1.75
2023-05-09T17:25:11.816Z,1.83
2023-05-09T17:27:39.782Z,1.80
2023-05-09T17:30:09.408Z,2.25
2023-05-09T17:32:42.965Z,1.98
2023-05-09T17:35:10.715Z,2.20
2023-05-09T17:37:45.830Z,2.00
2023-05-09T17:40:13.412Z,2.50
2023-05-09T17:42:41.083Z,1.95
2023-05-09T17:45:19.195Z,2.45
2023-05-09T17:47:52.814Z,2.65
2023-05-09T17:50:27.802Z,2.05
2023-05-09T17:52:57.022Z,2.22
2023-05-09T17:55:32.276Z,2.47
2023-05-09T17:58:05.813Z,2.80
2023-05-09T18:00:39.786Z,2.45
2023-05-09T18:03:06.951Z,2.58
2023-05-09T18:05:41.853Z,2.53
2023-05-09T18:08:16.040Z,2.95
2023-05-09T18:10:49.835Z,2.50
2023-05-09T18:13:17.837Z,2.63
2023-05-09T18:15:51.836Z,2.75
2023-05-09T18:18:37.872Z,2.80
2023-05-09T18:21:11.816Z,2.80
2023-05-09T18:23:46.812Z,3.10
2023-05-09T18:26:21.240Z,3.58
2023-05-09T18:28:54.780Z,3.13
2023-05-09T18:31:22.670Z,3.95
2023-05-09T18:33:56.791Z,3.22
2023-05-09T18:36:36.883Z,2.95
2023-05-09T18:39:10.861Z,3.28
2023-05-09T18:41:45.812Z,3.70
2023-05-09T18:44:15.200Z,3.40
2023-05-09T18:46:49.893Z,2.83
2023-05-09T18:49:23.835Z,3.00
2023-05-09T18:51:57.864Z,3.40
2023-05-09T18:54:27.093Z,3.22
2023-05-09T18:57:02.300Z,2.92
2023-05-09T18:59:29.721Z,2.78
2023-05-09T19:02:03.914Z,3.03
2023-05-09T19:04:31.063Z,2.80
2023-05-09T19:06:59.638Z,2.70
2023-05-09T19:09:35.253Z,2.47
2023-05-09T19:12:08.415Z,2.40
2023-05-09T19:14:44.854Z,2.10
2023-05-09T19:17:17.911Z,2.10
2023-05-09T19:19:58.852Z,2.17
2023-05-09T19:22:32.806Z,2.00
2023-05-09T19:24:59.852Z,1.95
2023-05-09T19:27:35.998Z,1.92
2023-05-09T19:30:16.199Z,1.73
2023-05-09T19:32:52.757Z,1.80
2023-05-09T19:35:31.363Z,1.90
2023-05-09T19:38:07.234Z,1.70
2023-05-09T19:40:35.625Z,1.50
2023-05-09T19:43:12.972Z,1.60
2023-05-09T19:45:46.930Z,1.30
2023-05-09T19:48:23.848Z,1.48
2023-05-09T19:51:04.900Z,1.20
2023-05-09T19:53:34.016Z,1.35
2023-05-09T19:56:09.873Z,1.35
2023-05-09T19:58:46.320Z,1.17
2023-05-09T20:01:19.872Z,1.40
2023-05-09T20:03:50.619Z,1.20
2023-05-09T20:06:25.952Z,1.40
2023-05-09T20:08:53.019Z,1.50
2023-05-09T20:11:29.338Z,1.17
2023-05-09T20:13:56.428Z,1.20
2023-05-09T20:16:44.195Z,1.08
2023-05-09T20:19:15.284Z,1.10
2023-05-09T20:21:48.866Z,1.50
2023-05-09T20:24:16.354Z,1.60
2023-05-09T20:26:43.432Z,1.60
2023-05-09T20:29:18.356Z,1.85
2023-05-09T20:31:51.938Z,1.80
2023-05-09T20:34:21.290Z,1.70
2023-05-09T20:36:58.872Z,2.20
2023-05-09T20:39:26.958Z,2.20
2023-05-09T20:41:56.100Z,2.10
2023-05-09T20:44:29.845Z,2.08
2023-05-09T20:46:56.882Z,2.63
2023-05-09T20:49:30.899Z,2.75
2023-05-09T20:51:57.969Z,2.40
2023-05-09T20:54:31.900Z,2.63
2023-05-09T20:56:58.998Z,2.88
2023-05-09T20:59:32.836Z,2.80
2023-05-09T21:01:59.936Z,2.85
2023-05-09T21:04:33.955Z,2.38
2023-05-09T21:07:01.102Z,2.55
2023-05-09T21:09:34.866Z,2.83
2023-05-09T21:12:11.344Z,2.90
2023-05-09T21:14:44.948Z,2.72
2023-05-09T21:17:24.926Z,2.92
2023-05-09T21:20:05.900Z,3.13
2023-05-09T21:22:39.868Z,2.80
2023-05-09T21:25:13.851Z,2.80
2023-05-09T21:27:47.897Z,2.65
2023-05-09T21:30:15.043Z,2.28
2023-05-09T21:32:48.856Z,2.50
2023-05-09T21:35:22.873Z,2.60
2023-05-09T21:38:00.268Z,2.33
2023-05-09T21:40:27.325Z,2.33
2023-05-09T21:43:01.205Z,2.35
2023-05-09T21:45:34.942Z,2.28
2023-05-09T21:48:08.964Z,2.15
2023-05-09T21:50:37.150Z,2.25
2023-05-09T21:53:11.899Z,2.30
2023-05-09T21:55:39.110Z,2.00
2023-05-09T21:58:12.903Z,2.58
2023-05-09T22:00:39.974Z,2.30
2023-05-09T22:03:14.001Z,2.55
2023-05-09T22:05:41.471Z,2.35
2023-05-09T22:08:14.907Z,2.15
2023-05-09T22:10:43.491Z,2.35
2023-05-09T22:13:16.915Z,2.30
2023-05-09T22:15:44.175Z,1.85
2023-05-09T22:18:23.889Z,2.25
2023-05-09T22:20:57.864Z,2.55
2023-05-09T22:23:31.863Z,2.28
2023-05-09T22:26:05.926Z,2.10
2023-05-09T22:28:39.889Z,2.20
2023-05-09T22:31:07.512Z,2.15
2023-05-09T22:33:35.172Z,2.10
2023-05-09T22:36:08.884Z,1.95
2023-05-09T22:38:36.134Z,1.48
2023-05-09T22:41:09.884Z,1.40
2023-05-09T22:43:39.622Z,1.10
2023-05-09T22:46:13.882Z,1.23
2023-05-09T22:48:47.925Z,1.48
2023-05-09T22:51:21.894Z,1.42
2023-05-09T22:53:49.085Z,1.20
2023-05-09T22:56:22.882Z,1.17
2023-05-09T22:58:49.974Z,0.70
2023-05-09T23:01:23.960Z,0.40
2023-05-09T23:03:57.870Z,0.40
2023-05-09T23:06:31.951Z,0.30
2023-05-09T23:08:59.017Z,0.20
2023-05-09T23:11:26.063Z,0.20
2023-05-09T23:13:59.932Z,0.10
2023-05-09T23:16:34.016Z,0.30
2023-05-09T23:19:13.937Z,0.10
2023-05-09T23:21:41.196Z,0.15
2023-05-09T23:24:14.939Z,0.10
2023-05-09T23:26:48.877Z,0.20
2023-05-09T23:29:22.904Z,0.28
2023-05-09T23:31:56.914Z,0.10
2023-05-09T23:34:24.040Z,0.20
2023-05-09T23:36:57.861Z,0.15
2023-05-09T23:39:24.957Z,0.30
2023-05-09T23:41:58.877Z,0.10
2023-05-09T23:44:25.945Z,0.30
2023-05-09T23:47:00.089Z,0.30
2023-05-09T23:49:33.881Z,0.35
2023-05-09T23:52:07.913Z,0.40
2023-05-09T23:54:41.910Z,0.45
2023-05-09T23:57:08.983Z,0.40
2023-05-09T23:59:42.894Z,0.55
